Time;durP1;ratioP1;P1;durP2;ratioP2;P2;SDS_P1;SDS_P2;PMS_P1;PMS_P2;Temp;Humidity;BMP_temperature;BMP_pressure;BME280_temperature;BME280_humidity;BME280_pressure;Samples;Min_cycle;Max_cycle;Signal;HPM_P1;HPM_P2
2020/12/12 00:01:04;;;;;;;64.95;32.97;;;3.60;99.90;;;;;;5028097;28;20072;-50
2020/12/12 00:03:30;;;;;;;79.60;33.58;;;3.60;99.90;;;;;;5029715;28;20048;-49
2020/12/12 00:05:56;;;;;;;61.90;31.50;;;3.60;99.90;;;;;;5029323;28;20401;-50
2020/12/12 00:08:21;;;;;;;65.18;31.73;;;3.50;99.90;;;;;;5029429;28;20144;-49
2020/12/12 00:10:48;;;;;;;62.80;32.20;;;3.60;99.90;;;;;;5029650;28;20055;-50
2020/12/12 00:13:14;;;;;;;64.85;33.05;;;3.60;99.90;;;;;;5029481;28;20038;-48
2020/12/12 00:15:40;;;;;;;63.50;31.10;;;3.50;99.90;;;;;;5028515;28;20049;-50
2020/12/12 00:18:07;;;;;;;58.95;30.65;;;3.50;99.90;;;;;;5029558;28;20053;-48
2020/12/12 00:20:34;;;;;;;65.47;33.22;;;3.50;99.90;;;;;;5030260;28;20044;-47
2020/12/12 00:22:59;;;;;;;66.13;32.75;;;3.50;99.90;;;;;;5028574;28;20113;-46
2020/12/12 00:25:25;;;;;;;61.58;30.60;;;3.50;99.90;;;;;;5028707;28;20121;-50
2020/12/12 00:27:50;;;;;;;64.45;31.38;;;3.60;99.90;;;;;;5029488;28;20418;-48
2020/12/12 00:30:15;;;;;;;67.40;33.53;;;3.50;99.90;;;;;;5028263;28;20025;-49
2020/12/12 00:32:41;;;;;;;67.32;31.95;;;3.50;99.90;;;;;;5029025;28;20055;-47
2020/12/12 00:35:07;;;;;;;61.78;30.88;;;3.50;99.90;;;;;;5027353;28;20095;-47
2020/12/12 00:37:32;;;;;;;61.42;31.08;;;3.50;99.90;;;;;;5029532;28;20033;-48
2020/12/12 00:39:58;;;;;;;59.92;29.90;;;3.50;99.90;;;;;;5029839;28;20478;-48
2020/12/12 00:42:23;;;;;;;65.00;32.10;;;3.40;99.90;;;;;;5029361;28;20037;-47
2020/12/12 00:44:49;;;;;;;66.20;33.08;;;3.40;99.90;;;;;;5028193;28;20033;-48
2020/12/12 00:47:14;;;;;;;65.45;31.95;;;3.40;99.90;;;;;;5028507;28;20087;-48
2020/12/12 00:49:40;;;;;;;68.90;32.67;;;3.40;99.90;;;;;;5029162;28;20029;-48
2020/12/12 00:52:05;;;;;;;59.40;29.75;;;3.40;99.90;;;;;;5030551;28;20544;-48
2020/12/12 00:54:32;;;;;;;65.53;32.60;;;3.40;99.90;;;;;;5037416;28;20112;-47
2020/12/12 00:56:57;;;;;;;65.47;32.17;;;3.30;99.90;;;;;;5048896;28;20029;-48
2020/12/12 00:59:23;;;;;;;65.78;32.28;;;3.30;99.90;;;;;;5038411;28;20036;-48
2020/12/12 01:01:48;;;;;;;57.95;30.05;;;3.30;99.90;;;;;;5028711;28;20110;-48
2020/12/12 01:04:14;;;;;;;57.20;30.90;;;3.20;99.90;;;;;;5028444;28;20529;-48
2020/12/12 01:06:40;;;;;;;66.72;31.35;;;3.20;99.90;;;;;;5027626;28;20029;-48
2020/12/12 01:09:06;;;;;;;68.47;31.58;;;3.10;99.90;;;;;;5027984;28;20101;-47
2020/12/12 01:11:32;;;;;;;64.43;32.20;;;3.10;99.90;;;;;;5028566;28;20497;-48
2020/12/12 01:13:57;;;;;;;70.10;32.25;;;3.10;99.90;;;;;;5027439;28;20033;-47
2020/12/12 01:16:23;;;;;;;69.45;32.38;;;3.10;99.90;;;;;;5027762;28;20063;-47
2020/12/12 01:18:48;;;;;;;65.15;32.50;;;3.00;99.90;;;;;;5028469;28;20082;-47
2020/12/12 01:21:16;;;;;;;78.45;33.67;;;2.90;99.90;;;;;;5027342;28;20663;-48
2020/12/12 01:23:41;;;;;;;76.50;34.80;;;2.90;99.90;;;;;;5028079;28;20021;-48
2020/12/12 01:26:07;;;;;;;69.18;33.40;;;2.80;99.90;;;;;;5027720;28;20026;-48
2020/12/12 01:28:34;;;;;;;73.00;34.83;;;2.80;99.90;;;;;;5027694;28;20029;-48
2020/12/12 01:30:59;;;;;;;69.40;33.70;;;2.80;99.90;;;;;;5028122;28;20112;-47
2020/12/12 01:33:25;;;;;;;68.93;33.95;;;2.80;99.90;;;;;;5027751;28;20108;-47
2020/12/12 01:35:51;;;;;;;74.40;33.85;;;2.70;99.90;;;;;;5027568;28;20033;-48
2020/12/12 01:38:16;;;;;;;67.95;33.13;;;2.70;99.90;;;;;;5026943;28;20026;-47
2020/12/12 01:40:42;;;;;;;70.13;34.40;;;2.70;99.90;;;;;;5026250;28;20040;-48
2020/12/12 01:43:11;;;;;;;69.13;34.35;;;2.60;99.90;;;;;;5027676;28;20286;-48
2020/12/12 01:45:38;;;;;;;70.47;33.90;;;2.60;99.90;;;;;;5026507;28;20029;-48
2020/12/12 01:48:07;;;;;;;71.80;32.47;;;2.60;99.90;;;;;;5027764;28;20034;-49
2020/12/12 01:50:32;;;;;;;74.05;34.60;;;2.50;99.90;;;;;;5027977;28;20169;-48
2020/12/12 01:52:58;;;;;;;72.10;33.25;;;2.50;99.90;;;;;;5029382;28;20026;-48
2020/12/12 01:55:25;;;;;;;71.05;33.58;;;2.50;99.90;;;;;;5043200;28;20390;-48
2020/12/12 01:57:52;;;;;;;69.13;32.08;;;2.50;99.90;;;;;;5046633;28;20064;-49
2020/12/12 02:00:19;;;;;;;78.88;34.97;;;2.40;99.90;;;;;;5044325;28;20848;-48
2020/12/12 02:02:50;;;;;;;68.38;32.95;;;2.50;99.90;;;;;;5028008;28;20025;-48
2020/12/12 02:05:39;;;;;;;71.60;33.50;;;2.50;99.90;;;;;;5027298;28;20029;-47
2020/12/12 02:08:18;;;;;;;73.45;33.70;;;2.40;99.90;;;;;;5027598;28;20026;-48
2020/12/12 02:10:46;;;;;;;66.95;31.55;;;2.40;99.90;;;;;;5027667;28;20053;-48
2020/12/12 02:13:12;;;;;;;66.47;30.55;;;2.40;99.90;;;;;;5027251;28;20505;-48
2020/12/12 02:15:38;;;;;;;70.93;33.10;;;2.40;99.90;;;;;;5025954;28;20025;-47
2020/12/12 02:18:18;;;;;;;77.15;32.72;;;2.40;99.90;;;;;;5027495;28;20022;-47
2020/12/12 02:20:53;;;;;;;75.25;33.42;;;2.40;99.90;;;;;;5030925;28;20028;-47
2020/12/12 02:23:19;;;;;;;67.10;31.55;;;2.40;99.90;;;;;;5031541;28;20477;-47
2020/12/12 02:25:45;;;;;;;70.35;32.72;;;2.40;99.90;;;;;;5030900;28;20112;-46
2020/12/12 02:28:14;;;;;;;71.78;34.78;;;2.40;99.90;;;;;;5030173;28;20567;-48
2020/12/12 02:30:39;;;;;;;67.75;33.05;;;2.30;99.90;;;;;;5031139;28;20017;-49
2020/12/12 02:33:05;;;;;;;66.68;32.17;;;2.40;99.90;;;;;;5029939;28;20087;-48
2020/12/12 02:35:30;;;;;;;73.90;33.53;;;2.30;99.90;;;;;;5030413;28;20032;-49
2020/12/12 02:37:55;;;;;;;69.22;31.95;;;2.30;99.90;;;;;;5031428;28;20475;-46
2020/12/12 02:40:21;;;;;;;73.60;32.53;;;2.30;99.90;;;;;;5031294;28;20080;-48
2020/12/12 02:42:46;;;;;;;71.13;32.95;;;2.40;99.90;;;;;;5031439;28;20059;-49
2020/12/12 02:45:12;;;;;;;67.53;32.25;;;2.30;99.90;;;;;;5029982;28;20112;-47
2020/12/12 02:47:39;;;;;;;68.10;31.80;;;2.30;99.90;;;;;;5030905;28;20022;-48
2020/12/12 02:50:10;;;;;;;70.38;31.83;;;2.40;99.90;;;;;;5030812;28;20024;-47
2020/12/12 02:52:37;;;;;;;72.50;33.97;;;2.30;99.90;;;;;;5029904;28;20032;-47
2020/12/12 02:55:04;;;;;;;70.47;32.83;;;2.40;99.90;;;;;;5036241;28;20318;-48
2020/12/12 02:57:30;;;;;;;69.40;34.28;;;2.40;99.90;;;;;;5050190;28;20072;-47
2020/12/12 02:59:55;;;;;;;73.20;34.22;;;2.40;99.90;;;;;;5051149;28;20105;-47
2020/12/12 03:02:21;;;;;;;76.47;34.30;;;2.40;99.90;;;;;;5050821;28;20102;-47
2020/12/12 03:04:46;;;;;;;71.15;34.20;;;2.40;99.90;;;;;;5048628;28;20033;-46
2020/12/12 03:07:12;;;;;;;72.68;32.90;;;2.40;99.90;;;;;;5050544;28;20032;-47
2020/12/12 03:09:38;;;;;;;70.53;32.95;;;2.40;99.90;;;;;;5050832;28;20025;-47
2020/12/12 03:12:03;;;;;;;69.55;35.15;;;2.40;99.90;;;;;;5050390;28;20033;-48
2020/12/12 03:14:29;;;;;;;70.95;34.40;;;2.40;99.90;;;;;;5048342;28;20055;-51
2020/12/12 03:16:55;;;;;;;64.57;33.45;;;2.40;99.90;;;;;;5050569;28;20449;-48
2020/12/12 03:19:21;;;;;;;72.75;32.00;;;2.40;99.90;;;;;;5050426;28;20072;-47
2020/12/12 03:21:46;;;;;;;65.88;32.03;;;2.40;99.90;;;;;;5050624;28;20090;-47
2020/12/12 03:24:11;;;;;;;69.47;32.75;;;2.40;99.90;;;;;;5050028;28;20028;-47
2020/12/12 03:26:37;;;;;;;69.80;33.45;;;2.50;99.90;;;;;;5049250;28;20463;-47
2020/12/12 03:29:02;;;;;;;68.68;33.53;;;2.50;99.90;;;;;;5050203;28;20032;-47
2020/12/12 03:31:28;;;;;;;70.95;33.53;;;2.50;99.90;;;;;;5049176;28;20033;-48
2020/12/12 03:33:53;;;;;;;67.75;31.13;;;2.50;99.90;;;;;;5050073;28;20390;-47
2020/12/12 03:36:19;;;;;;;67.80;31.38;;;2.50;99.90;;;;;;5049519;28;20064;-46
2020/12/12 03:38:44;;;;;;;68.18;31.25;;;2.50;99.90;;;;;;5050396;28;20023;-46
2020/12/12 03:41:10;;;;;;;68.57;31.67;;;2.50;99.90;;;;;;5048743;28;20071;-50
2020/12/12 03:43:35;;;;;;;65.15;31.48;;;2.50;99.90;;;;;;5050294;28;20044;-47
2020/12/12 03:46:02;;;;;;;72.22;31.13;;;2.50;99.90;;;;;;5048859;28;20021;-46
2020/12/12 03:48:28;;;;;;;68.10;31.15;;;2.50;99.90;;;;;;5048402;28;20051;-46
2020/12/12 03:50:53;;;;;;;66.10;32.63;;;2.50;99.90;;;;;;5043996;28;20589;-47
2020/12/12 03:53:18;;;;;;;64.10;30.13;;;2.50;99.90;;;;;;5037767;28;20025;-46
2020/12/12 03:55:45;;;;;;;64.68;31.63;;;2.50;99.90;;;;;;5037303;28;20487;-48
2020/12/12 03:58:10;;;;;;;70.22;32.28;;;2.50;99.90;;;;;;5041564;28;20045;-49
2020/12/12 04:00:36;;;;;;;67.75;31.52;;;2.60;99.90;;;;;;5040928;28;20712;-48
2020/12/12 04:03:02;;;;;;;62.85;32.17;;;2.60;99.90;;;;;;5040814;28;20029;-47
2020/12/12 04:05:29;;;;;;;61.75;30.98;;;2.60;99.90;;;;;;5038595;28;20030;-48
2020/12/12 04:07:54;;;;;;;66.88;31.90;;;2.60;99.90;;;;;;5037846;28;20568;-47
2020/12/12 04:10:19;;;;;;;67.32;31.63;;;2.60;99.90;;;;;;5039621;28;20021;-48
2020/12/12 04:12:45;;;;;;;58.42;29.20;;;2.60;99.90;;;;;;5038192;28;20478;-49
2020/12/12 04:15:11;;;;;;;65.32;31.50;;;2.60;99.90;;;;;;5035673;28;20029;-47
2020/12/12 04:17:36;;;;;;;60.65;28.63;;;2.60;99.90;;;;;;5039251;28;20109;-47
2020/12/12 04:20:03;;;;;;;61.25;30.05;;;2.60;99.90;;;;;;5039545;28;20478;-48
2020/12/12 04:22:28;;;;;;;66.13;30.90;;;2.70;99.90;;;;;;5036902;28;20498;-49
2020/12/12 04:24:55;;;;;;;61.63;29.77;;;2.60;99.90;;;;;;5040619;28;20032;-49
2020/12/12 04:27:20;;;;;;;65.78;31.98;;;2.60;99.90;;;;;;5036796;28;20368;-47
2020/12/12 04:29:47;;;;;;;61.50;29.52;;;2.60;99.90;;;;;;5042414;28;20024;-47
2020/12/12 04:32:12;;;;;;;63.30;29.30;;;2.60;99.90;;;;;;5039039;28;20049;-47
2020/12/12 04:34:38;;;;;;;67.70;29.25;;;2.60;99.90;;;;;;5038946;28;20509;-47
2020/12/12 04:37:04;;;;;;;59.25;29.77;;;2.60;99.90;;;;;;5040717;28;20106;-49
2020/12/12 04:39:30;;;;;;;65.10;29.88;;;2.60;99.90;;;;;;5036910;28;20486;-48
2020/12/12 04:41:56;;;;;;;62.80;30.33;;;2.70;99.90;;;;;;5039082;28;20032;-47
2020/12/12 04:44:23;;;;;;;64.93;30.63;;;2.60;99.90;;;;;;5036711;28;20021;-49
2020/12/12 04:46:49;;;;;;;65.07;29.85;;;2.70;99.90;;;;;;5037498;28;20502;-48
2020/12/12 04:49:16;;;;;;;63.88;29.15;;;2.70;99.90;;;;;;5037980;28;20030;-46
2020/12/12 04:51:46;;;;;;;58.03;29.58;;;2.70;99.90;;;;;;5037102;28;20076;-46
2020/12/12 04:54:18;;;;;;;61.60;29.08;;;2.70;99.90;;;;;;5037759;28;20499;-47
2020/12/12 04:56:45;;;;;;;57.40;29.20;;;2.70;99.90;;;;;;5037253;28;20272;-46
2020/12/12 04:59:12;;;;;;;64.38;29.02;;;2.70;99.90;;;;;;5035732;28;20044;-47
2020/12/12 05:01:38;;;;;;;56.05;28.20;;;2.70;99.90;;;;;;5037672;28;20017;-50
2020/12/12 05:04:06;;;;;;;58.53;28.70;;;2.70;99.90;;;;;;5039316;28;20056;-47
2020/12/12 05:06:31;;;;;;;56.63;28.02;;;2.70;99.90;;;;;;5037400;28;20028;-47
2020/12/12 05:08:57;;;;;;;56.38;29.25;;;2.70;99.90;;;;;;5037999;28;20025;-47
2020/12/12 05:11:23;;;;;;;61.80;29.02;;;2.80;99.90;;;;;;5038958;28;20586;-49
2020/12/12 05:13:49;;;;;;;57.78;29.00;;;2.80;99.90;;;;;;5036827;28;20024;-46
2020/12/12 05:16:15;;;;;;;60.67;28.55;;;2.80;99.90;;;;;;5035716;28;20104;-46
2020/12/12 05:18:42;;;;;;;60.70;30.23;;;2.80;99.90;;;;;;5048406;28;20514;-46
2020/12/12 05:21:09;;;;;;;62.08;28.75;;;2.80;99.90;;;;;;5048375;28;20013;-45
2020/12/12 05:23:35;;;;;;;62.70;29.00;;;2.80;99.90;;;;;;5048531;28;20501;-44
2020/12/12 05:26:01;;;;;;;62.50;29.13;;;2.80;99.90;;;;;;5046647;28;20124;-45
2020/12/12 05:28:26;;;;;;;57.75;29.17;;;2.80;99.90;;;;;;5048179;28;20033;-46
2020/12/12 05:30:53;;;;;;;54.20;28.17;;;2.80;99.90;;;;;;5047899;28;20032;-44
2020/12/12 05:33:21;;;;;;;61.28;28.80;;;2.80;99.90;;;;;;5047658;28;20275;-47
2020/12/12 05:35:46;;;;;;;54.80;28.50;;;2.80;99.90;;;;;;5046021;28;20112;-45
2020/12/12 05:38:12;;;;;;;60.28;28.60;;;2.80;99.90;;;;;;5048426;28;20174;-48
2020/12/12 05:40:39;;;;;;;58.78;29.73;;;2.90;99.90;;;;;;5048412;28;20033;-50
2020/12/12 05:43:07;;;;;;;64.38;29.52;;;2.90;99.90;;;;;;5048487;28;20029;-51
2020/12/12 05:45:33;;;;;;;62.67;27.67;;;2.90;99.90;;;;;;5037630;28;20021;-50
2020/12/12 05:47:59;;;;;;;56.55;29.05;;;2.90;99.90;;;;;;5028194;28;20501;-47
2020/12/12 05:50:25;;;;;;;55.85;27.40;;;2.90;99.90;;;;;;5028204;28;20021;-47
2020/12/12 05:52:53;;;;;;;44.40;25.52;;;2.90;99.90;;;;;;5027785;28;20553;-48
2020/12/12 05:55:25;;;;;;;49.42;27.52;;;2.90;99.90;;;;;;5026682;28;20025;-46
2020/12/12 05:57:52;;;;;;;54.70;28.52;;;2.90;99.90;;;;;;5032867;28;20078;-45
2020/12/12 06:00:23;;;;;;;52.58;26.98;;;2.90;99.90;;;;;;5035240;28;20029;-47
2020/12/12 06:02:58;;;;;;;54.67;26.70;;;2.90;99.90;;;;;;5038342;28;20017;-45
2020/12/12 06:05:26;;;;;;;49.35;27.45;;;2.90;99.90;;;;;;5035779;28;20025;-44
2020/12/12 06:08:04;;;;;;;52.00;27.33;;;2.90;99.90;;;;;;5046855;28;20417;-45
2020/12/12 06:10:32;;;;;;;53.10;26.17;;;2.90;99.90;;;;;;5046841;28;20116;-46
2020/12/12 06:13:03;;;;;;;53.53;26.80;;;2.90;99.90;;;;;;5047395;28;20386;-46
2020/12/12 06:15:38;;;;;;;51.00;27.65;;;3.00;99.90;;;;;;5037609;28;20026;-45
2020/12/12 06:18:30;;;;;;;50.50;26.05;;;3.00;99.90;;;;;;5027708;28;20025;-44
2020/12/12 06:20:55;;;;;;;54.42;27.63;;;3.00;99.90;;;;;;5027898;28;20033;-43
2020/12/12 06:23:21;;;;;;;51.15;25.88;;;3.00;99.90;;;;;;5026108;28;20017;-44
2020/12/12 06:25:47;;;;;;;57.45;29.23;;;3.00;99.90;;;;;;5026786;28;20418;-44
2020/12/12 06:28:21;;;;;;;55.03;27.23;;;3.00;99.90;;;;;;5026366;28;20067;-45
2020/12/12 06:30:47;;;;;;;52.10;27.48;;;3.00;99.90;;;;;;5026287;28;20029;-43
2020/12/12 06:33:13;;;;;;;50.22;26.88;;;3.00;99.90;;;;;;5027356;28;20288;-43
2020/12/12 06:35:39;;;;;;;49.58;26.58;;;3.10;99.90;;;;;;5028445;28;20071;-44
2020/12/12 06:38:25;;;;;;;49.72;27.70;;;3.10;99.90;;;;;;5036255;28;20530;-44
2020/12/12 06:40:55;;;;;;;45.42;25.52;;;3.00;99.90;;;;;;5047474;28;20060;-44
2020/12/12 06:43:32;;;;;;;45.78;25.23;;;3.00;99.90;;;;;;5047264;28;20091;-43
2020/12/12 06:46:04;;;;;;;51.10;27.20;;;3.10;99.90;;;;;;5038322;28;20064;-44
2020/12/12 06:48:31;;;;;;;51.95;26.58;;;3.00;99.90;;;;;;5047509;28;20379;-44
2020/12/12 06:50:58;;;;;;;52.65;27.42;;;3.00;99.90;;;;;;5047460;28;20017;-47
2020/12/12 06:53:31;;;;;;;47.42;27.45;;;3.00;99.90;;;;;;5046916;28;20017;-45
2020/12/12 06:56:12;;;;;;;46.00;26.42;;;3.00;99.90;;;;;;5045769;28;20044;-43
2020/12/12 06:58:39;;;;;;;52.92;26.58;;;3.00;99.90;;;;;;5045210;28;20086;-44
2020/12/12 07:01:27;;;;;;;53.30;27.88;;;3.10;99.90;;;;;;5042513;28;20040;-44
2020/12/12 07:04:04;;;;;;;50.08;26.98;;;3.10;99.90;;;;;;5048926;28;20496;-47
2020/12/12 07:06:31;;;;;;;46.63;24.98;;;3.10;99.90;;;;;;5047321;28;20029;-45
2020/12/12 07:09:08;;;;;;;51.08;26.48;;;3.20;99.90;;;;;;5051050;28;20028;-47
2020/12/12 07:11:35;;;;;;;46.65;26.02;;;3.20;99.90;;;;;;5049587;28;20505;-48
2020/12/12 07:14:01;;;;;;;46.10;26.05;;;3.20;99.90;;;;;;5050405;28;20096;-44
2020/12/12 07:16:28;;;;;;;47.30;26.45;;;3.20;99.90;;;;;;5049605;28;20029;-45
2020/12/12 07:18:53;;;;;;;48.95;26.70;;;3.20;99.90;;;;;;5050810;28;20024;-46
2020/12/12 07:21:20;;;;;;;46.05;25.48;;;3.20;99.90;;;;;;5049315;28;20025;-44
2020/12/12 07:23:46;;;;;;;49.65;27.70;;;3.20;99.90;;;;;;5050730;28;20028;-44
2020/12/12 07:26:12;;;;;;;49.38;26.63;;;3.20;99.90;;;;;;5049892;28;20028;-45
2020/12/12 07:28:38;;;;;;;51.65;27.52;;;3.20;99.90;;;;;;5050386;28;20036;-44
2020/12/12 07:31:04;;;;;;;49.25;25.35;;;3.20;99.90;;;;;;5050345;28;20017;-44
2020/12/12 07:33:30;;;;;;;46.08;26.08;;;3.20;99.90;;;;;;5049685;28;20035;-44
2020/12/12 07:35:55;;;;;;;50.17;26.65;;;3.30;99.90;;;;;;5049251;28;20033;-44
2020/12/12 07:38:21;;;;;;;47.33;26.63;;;3.30;99.90;;;;;;5049949;28;20029;-44
2020/12/12 07:40:47;;;;;;;47.40;26.50;;;3.30;99.90;;;;;;5049998;28;20017;-45
2020/12/12 07:43:12;;;;;;;48.10;26.65;;;3.30;99.90;;;;;;5050358;28;20048;-45
2020/12/12 07:48:20;;;;;;;52.20;29.27;;;3.40;99.90;;;;;;5049818;28;20703;-45
2020/12/12 07:50:46;;;;;;;50.38;27.13;;;3.40;99.90;;;;;;5048612;28;20478;-44
2020/12/12 07:53:13;;;;;;;48.20;25.52;;;3.40;99.90;;;;;;5049643;28;20033;-44
2020/12/12 07:55:43;;;;;;;49.95;27.35;;;3.40;99.90;;;;;;5048859;28;20243;-44
2020/12/12 07:58:24;;;;;;;48.08;27.15;;;3.40;99.90;;;;;;5049570;28;20029;-44
2020/12/12 08:01:00;;;;;;;50.78;27.27;;;3.50;99.90;;;;;;5044653;28;20025;-45
2020/12/12 08:03:26;;;;;;;47.65;27.15;;;3.50;99.90;;;;;;5047174;28;20072;-45
2020/12/12 08:06:08;;;;;;;42.63;25.42;;;3.50;99.90;;;;;;5049844;28;20143;-46
2020/12/12 08:08:35;;;;;;;49.60;27.20;;;3.60;99.90;;;;;;5050664;28;20033;-47
2020/12/12 08:11:03;;;;;;;45.58;24.85;;;3.60;99.90;;;;;;5043731;28;20049;-45
2020/12/12 08:13:29;;;;;;;44.60;25.92;;;3.70;99.90;;;;;;5029318;28;20029;-45
2020/12/12 08:16:01;;;;;;;45.63;24.92;;;3.70;99.90;;;;;;5028109;28;20526;-45
2020/12/12 08:18:27;;;;;;;44.10;25.55;;;3.70;99.90;;;;;;5036119;28;20040;-46
2020/12/12 08:20:52;;;;;;;45.70;25.45;;;3.80;99.90;;;;;;5029683;28;20482;-44
2020/12/12 08:23:18;;;;;;;46.03;25.80;;;3.80;99.90;;;;;;5029890;28;20050;-43
2020/12/12 08:25:44;;;;;;;42.38;24.58;;;3.70;99.90;;;;;;5027877;28;20049;-46
2020/12/12 08:28:10;;;;;;;44.75;24.13;;;3.80;99.90;;;;;;5041316;28;20466;-44
2020/12/12 08:30:36;;;;;;;45.78;25.73;;;3.80;99.90;;;;;;5036985;28;20028;-43
2020/12/12 08:33:11;;;;;;;46.15;25.20;;;3.80;99.90;;;;;;5034551;28;20025;-44
2020/12/12 08:35:37;;;;;;;43.85;24.83;;;3.80;99.90;;;;;;5037733;28;20048;-43
2020/12/12 08:38:04;;;;;;;46.65;26.77;;;3.80;99.90;;;;;;5042296;28;20491;-44
2020/12/12 08:40:43;;;;;;;47.80;26.58;;;3.90;99.90;;;;;;5050229;28;20025;-44
2020/12/12 08:43:11;;;;;;;43.65;24.73;;;3.90;99.90;;;;;;5045049;28;20675;-45
2020/12/12 08:45:38;;;;;;;44.40;25.58;;;3.90;99.90;;;;;;5038849;28;20036;-45
2020/12/12 08:48:09;;;;;;;44.78;26.00;;;3.90;99.90;;;;;;5045775;28;20527;-43
2020/12/12 08:50:52;;;;;;;44.55;24.60;;;3.90;99.90;;;;;;5049417;28;20091;-44
2020/12/12 08:53:32;;;;;;;44.45;25.08;;;3.90;99.90;;;;;;5047954;28;20021;-45
2020/12/12 08:56:09;;;;;;;46.65;26.13;;;4.00;99.90;;;;;;5039770;28;20024;-44
2020/12/12 08:58:42;;;;;;;43.13;26.05;;;4.00;99.90;;;;;;5040377;28;20098;-44
2020/12/12 09:01:09;;;;;;;46.35;26.08;;;4.00;99.90;;;;;;5036041;28;20028;-44
2020/12/12 09:03:57;;;;;;;47.17;26.40;;;4.00;99.90;;;;;;5039025;28;20033;-44
2020/12/12 09:06:24;;;;;;;46.28;27.45;;;4.00;99.90;;;;;;5035688;28;20398;-45
2020/12/12 09:09:12;;;;;;;46.88;26.65;;;4.10;99.90;;;;;;5037896;28;20163;-45
2020/12/12 09:11:45;;;;;;;44.85;25.85;;;4.10;99.90;;;;;;5038676;28;20033;-45
2020/12/12 09:14:11;;;;;;;45.22;26.45;;;4.10;99.90;;;;;;5037900;28;20033;-47
2020/12/12 09:16:38;;;;;;;48.83;28.02;;;4.10;99.90;;;;;;5039102;28;20080;-46
2020/12/12 09:19:05;;;;;;;50.78;28.20;;;4.10;99.90;;;;;;5038304;28;20108;-47
2020/12/12 09:21:31;;;;;;;48.22;27.88;;;4.10;99.90;;;;;;5038247;28;20025;-47
2020/12/12 09:23:57;;;;;;;46.75;27.20;;;4.20;99.90;;;;;;5034709;28;20045;-48
2020/12/12 09:26:23;;;;;;;45.97;26.23;;;4.20;99.90;;;;;;5038682;28;20064;-47
2020/12/12 09:28:48;;;;;;;51.25;29.20;;;4.20;99.90;;;;;;5037397;28;20017;-48
2020/12/12 09:31:18;;;;;;;46.30;27.25;;;4.20;99.90;;;;;;5039303;28;20017;-47
2020/12/12 09:33:44;;;;;;;50.45;28.92;;;4.20;99.90;;;;;;5038970;28;20466;-48
2020/12/12 09:36:10;;;;;;;49.58;27.70;;;4.20;99.90;;;;;;5037040;28;20040;-48
2020/12/12 09:38:36;;;;;;;46.72;26.80;;;4.20;99.90;;;;;;5040067;28;20027;-46
2020/12/12 09:41:01;;;;;;;47.10;27.60;;;4.30;99.90;;;;;;5038479;28;20079;-46
2020/12/12 09:43:27;;;;;;;51.70;27.55;;;4.30;99.90;;;;;;5038454;28;20393;-47
2020/12/12 09:45:53;;;;;;;49.30;28.33;;;4.40;99.90;;;;;;5038410;28;20116;-46
2020/12/12 09:48:18;;;;;;;50.63;27.85;;;4.40;99.90;;;;;;5038586;28;20017;-47
2020/12/12 09:50:44;;;;;;;46.00;27.88;;;4.40;99.90;;;;;;5036867;28;20064;-47
2020/12/12 09:53:10;;;;;;;44.47;27.30;;;4.40;99.90;;;;;;5036268;28;20052;-47
2020/12/12 09:55:38;;;;;;;49.40;28.10;;;4.40;99.90;;;;;;5037203;28;20056;-47
2020/12/12 09:58:09;;;;;;;49.10;27.38;;;4.50;99.90;;;;;;5038163;28;20018;-47
2020/12/12 10:00:37;;;;;;;50.70;27.55;;;4.50;99.90;;;;;;5036998;28;20087;-48
2020/12/12 10:03:04;;;;;;;46.50;28.48;;;4.60;99.90;;;;;;5036922;28;20025;-47
2020/12/12 10:05:30;;;;;;;51.35;30.38;;;4.60;99.90;;;;;;5037239;28;20033;-49
2020/12/12 10:07:59;;;;;;;50.45;29.38;;;4.70;99.90;;;;;;5037077;28;20032;-49
2020/12/12 10:10:27;;;;;;;52.78;29.75;;;4.70;99.90;;;;;;5035254;28;20031;-47
2020/12/12 10:12:53;;;;;;;52.70;30.60;;;4.70;99.90;;;;;;5035232;28;20447;-51
2020/12/12 10:15:20;;;;;;;50.55;29.92;;;4.70;99.90;;;;;;5040261;28;20375;-47
2020/12/12 10:17:47;;;;;;;52.70;29.70;;;4.70;99.90;;;;;;5042813;28;20410;-46
2020/12/12 10:20:13;;;;;;;52.92;30.40;;;4.60;99.90;;;;;;5027503;28;20029;-50
2020/12/12 10:22:39;;;;;;;50.38;30.63;;;4.70;99.90;;;;;;5028515;28;20475;-47
2020/12/12 10:25:05;;;;;;;49.20;29.65;;;4.70;99.90;;;;;;5028053;28;20052;-48
2020/12/12 10:27:31;;;;;;;48.72;29.48;;;4.70;99.90;;;;;;5028558;28;20510;-47
2020/12/12 10:29:56;;;;;;;50.15;29.05;;;4.70;99.90;;;;;;5028777;28;20033;-48
2020/12/12 10:32:22;;;;;;;51.13;29.27;;;4.80;99.90;;;;;;5028611;28;20157;-47
2020/12/12 10:34:47;;;;;;;52.67;30.05;;;4.80;99.90;;;;;;5027882;28;20554;-46
2020/12/12 10:37:13;;;;;;;47.05;28.15;;;4.80;99.90;;;;;;5028317;28;20053;-48
2020/12/12 10:39:50;;;;;;;48.88;27.27;;;4.80;99.90;;;;;;5029084;28;20084;-47
2020/12/12 10:42:15;;;;;;;49.80;28.98;;;4.80;99.90;;;;;;5032493;28;20025;-48
2020/12/12 10:44:41;;;;;;;52.17;30.52;;;4.80;99.90;;;;;;5032248;28;20391;-47
2020/12/12 10:47:06;;;;;;;50.15;29.35;;;4.80;99.90;;;;;;5036225;28;20027;-47
2020/12/12 10:49:32;;;;;;;50.85;30.02;;;4.80;99.90;;;;;;5052207;28;20118;-47
2020/12/12 10:51:57;;;;;;;52.70;30.10;;;4.80;99.90;;;;;;5051077;28;20398;-47
2020/12/12 10:54:26;;;;;;;56.03;31.05;;;4.80;99.90;;;;;;5046107;28;20029;-49
2020/12/12 10:56:52;;;;;;;54.58;32.00;;;4.90;99.90;;;;;;5050242;28;20017;-47
2020/12/12 10:59:17;;;;;;;50.50;29.63;;;4.90;99.90;;;;;;5050829;28;20078;-47
2020/12/12 11:01:43;;;;;;;55.80;32.80;;;4.90;99.90;;;;;;5050188;28;20587;-47
2020/12/12 11:04:08;;;;;;;63.25;34.25;;;4.90;99.90;;;;;;5042921;28;20157;-47
2020/12/12 11:06:34;;;;;;;53.67;30.63;;;4.80;99.90;;;;;;5043895;28;20494;-46
2020/12/12 11:09:01;;;;;;;57.58;32.08;;;4.80;99.90;;;;;;5048639;28;20024;-47
2020/12/12 11:11:26;;;;;;;56.05;30.77;;;4.80;99.90;;;;;;5048235;28;20497;-47
2020/12/12 11:13:53;;;;;;;57.60;32.28;;;4.90;99.90;;;;;;5048537;28;20021;-47
2020/12/12 11:16:19;;;;;;;57.58;32.70;;;4.90;99.90;;;;;;5048277;28;20136;-48
2020/12/12 11:18:50;;;;;;;53.92;31.10;;;5.00;99.90;;;;;;5049987;28;20107;-47
2020/12/12 11:21:23;;;;;;;54.95;31.95;;;5.00;99.90;;;;;;5050375;28;20148;-46
2020/12/12 11:23:48;;;;;;;53.75;32.13;;;4.90;99.90;;;;;;5050102;28;20025;-48
2020/12/12 11:26:14;;;;;;;56.25;30.63;;;5.00;99.90;;;;;;5049379;28;20036;-46
2020/12/12 11:28:42;;;;;;;54.28;31.52;;;5.00;99.90;;;;;;5044309;28;20045;-46
2020/12/12 11:31:07;;;;;;;52.28;30.42;;;5.10;99.90;;;;;;5029833;28;20029;-47
2020/12/12 11:33:35;;;;;;;56.40;31.02;;;5.10;99.90;;;;;;5029737;28;20036;-48
2020/12/12 11:41:51;;;;;;;56.95;30.73;;;5.10;99.90;;;;;;5030110;28;20168;-47
2020/12/12 11:46:47;;;;;;;54.90;31.75;;;5.20;99.90;;;;;;5029656;28;20029;-49
2020/12/12 11:49:13;;;;;;;57.10;31.20;;;5.20;99.90;;;;;;5039034;28;20033;-47
2020/12/12 11:51:39;;;;;;;56.38;32.05;;;5.30;99.90;;;;;;5038497;28;20028;-49
2020/12/12 11:54:05;;;;;;;48.78;28.70;;;5.30;99.90;;;;;;5037982;28;20476;-47
2020/12/12 11:56:32;;;;;;;53.67;31.50;;;5.30;99.90;;;;;;5039690;28;20034;-48
2020/12/12 11:58:57;;;;;;;54.42;31.13;;;5.30;99.90;;;;;;5038730;28;20355;-48
2020/12/12 12:01:25;;;;;;;53.58;32.97;;;5.30;99.90;;;;;;5040074;28;20025;-48
2020/12/12 12:03:51;;;;;;;49.38;29.08;;;5.20;99.90;;;;;;5038413;28;20026;-48
2020/12/12 12:06:18;;;;;;;50.10;29.88;;;5.30;99.90;;;;;;5036274;28;20334;-46
2020/12/12 12:11:29;;;;;;;55.60;31.52;;;5.30;99.90;;;;;;5039111;28;20028;-47
2020/12/12 12:13:59;;;;;;;52.15;30.80;;;5.40;99.90;;;;;;5035482;28;20026;-48
2020/12/12 12:16:27;;;;;;;49.70;30.23;;;5.30;99.90;;;;;;5033919;28;20033;-47
2020/12/12 12:18:52;;;;;;;49.17;29.70;;;5.30;99.90;;;;;;5033163;28;20013;-48
2020/12/12 12:21:18;;;;;;;49.08;30.25;;;5.30;99.90;;;;;;5030010;28;20522;-47
2020/12/12 12:23:43;;;;;;;52.08;31.05;;;5.30;99.90;;;;;;5030979;28;20021;-51
2020/12/12 12:26:09;;;;;;;144.07;75.88;;;5.30;99.90;;;;;;5030354;28;20233;-47
2020/12/12 12:28:35;;;;;;;73.38;41.42;;;5.30;99.90;;;;;;5030710;28;20574;-49
2020/12/12 12:31:01;;;;;;;50.50;30.90;;;5.30;99.90;;;;;;5031068;28;20116;-48
2020/12/12 12:33:26;;;;;;;50.92;29.60;;;5.40;99.90;;;;;;5027836;28;20021;-46
2020/12/12 12:35:52;;;;;;;51.17;30.73;;;5.50;99.90;;;;;;5027738;28;20052;-44
2020/12/12 12:38:17;;;;;;;53.78;29.20;;;5.50;99.90;;;;;;5028616;28;20108;-45
2020/12/12 12:40:43;;;;;;;49.90;30.25;;;5.40;99.90;;;;;;5028871;28;20030;-45
2020/12/12 12:43:09;;;;;;;50.03;30.45;;;5.50;99.90;;;;;;5028807;28;20078;-45
2020/12/12 12:45:34;;;;;;;48.42;29.33;;;5.50;99.90;;;;;;5028402;28;20367;-45
2020/12/12 12:48:00;;;;;;;49.25;29.13;;;5.60;99.90;;;;;;5028327;28;20026;-46
2020/12/12 12:50:35;;;;;;;45.70;28.20;;;5.60;99.90;;;;;;5029015;28;20028;-45